Time;durP1;ratioP1;P1;durP2;ratioP2;P2;SDS_P1;SDS_P2;PMS_P1;PMS_P2;Temp;Humidity;BMP_temperature;BMP_pressure;BME280_temperature;BME280_humidity;BME280_pressure;Samples;Min_cycle;Max_cycle;Signal;HPM_P1;HPM_P2
2022/12/15 00:39:15;;;;;;;43.70;16.10;;;;;;;;;;103352;1307;24237;-81
2022/12/15 00:41:42;;;;;;;38.00;16.00;;;;;;;;;;103435;1297;22470;-81
2022/12/15 00:44:08;;;;;;;45.70;16.90;;;;;;;;;;103404;1306;23182;-78
2022/12/15 00:46:53;;;;;;;41.90;17.70;;;;;;;;;;103444;1307;22456;-77
2022/12/15 01:22:29;;;;;;;35.60;14.40;;;;;;;;;;103470;1307;24275;-80
2022/12/15 01:24:56;;;;;;;41.80;16.60;;;;;;;;;;103406;1307;22475;-77
2022/12/15 01:27:22;;;;;;;38.40;16.00;;;;;;;;;;103436;1307;22485;-76
2022/12/15 01:29:49;;;;;;;37.40;16.10;;;;;;;;;;103222;1307;22490;-77
2022/12/15 01:32:16;;;;;;;46.30;17.90;;;;;;;;;;103327;1307;24320;-81
2022/12/15 01:34:42;;;;;;;44.00;17.40;;;;;;;;;;103216;1306;22464;-80
2022/12/15 01:37:09;;;;;;;33.30;14.20;;;;;;;;;;103407;1307;26594;-77
2022/12/15 01:42:21;;;;;;;39.80;16.80;;;;;;;;;;103478;1307;25248;-81
2022/12/15 01:44:52;;;;;;;40.50;15.90;;;;;;;;;;103445;1307;22461;-77
2022/12/15 01:47:21;;;;;;;40.50;16.60;;;;;;;;;;103469;1307;22702;-78
2022/12/15 01:49:48;;;;;;;34.10;14.70;;;;;;;;;;103315;1293;22528;-81
2022/12/15 01:52:15;;;;;;;37.20;15.20;;;;;;;;;;103307;1307;22481;-81
2022/12/15 01:54:50;;;;;;;40.00;16.20;;;;;;;;;;103309;1307;24218;-80
2022/12/15 01:57:18;;;;;;;41.10;16.30;;;;;;;;;;103394;1308;22472;-77
2022/12/15 01:59:49;;;;;;;37.00;16.00;;;;;;;;;;103368;1307;22499;-77
2022/12/15 02:02:19;;;;;;;36.00;14.20;;;;;;;;;;103407;1307;25319;-77
2022/12/15 02:04:47;;;;;;;35.70;14.60;;;;;;;;;;103456;1307;25338;-79
2022/12/15 02:07:14;;;;;;;40.70;16.00;;;;;;;;;;103381;1295;25272;-78
2022/12/15 02:09:42;;;;;;;40.00;16.50;;;;;;;;;;103442;1306;22513;-79
2022/12/15 02:12:09;;;;;;;34.40;14.40;;;;;;;;;;103435;1307;22873;-78
2022/12/15 02:14:36;;;;;;;34.40;14.30;;;;;;;;;;103480;1281;24688;-81
2022/12/15 02:17:02;;;;;;;36.00;15.20;;;;;;;;;;103264;1307;22480;-77
2022/12/15 02:19:32;;;;;;;34.30;14.50;;;;;;;;;;103493;1307;25326;-76
2022/12/15 02:21:58;;;;;;;39.10;15.80;;;;;;;;;;103439;1285;22465;-78
2022/12/15 02:24:28;;;;;;;43.00;16.50;;;;;;;;;;103456;1307;23846;-81
2022/12/15 02:26:55;;;;;;;35.80;15.20;;;;;;;;;;103369;1306;24240;-78
2022/12/15 02:29:21;;;;;;;36.40;14.90;;;;;;;;;;103350;1301;22479;-81
2022/12/15 02:31:55;;;;;;;36.80;15.30;;;;;;;;;;103268;1306;25350;-78
2022/12/15 02:34:29;;;;;;;34.40;13.80;;;;;;;;;;103255;1306;22664;-80
2022/12/15 02:36:58;;;;;;;31.00;12.90;;;;;;;;;;103435;1307;25217;-76
2022/12/15 02:39:25;;;;;;;31.30;12.20;;;;;;;;;;103454;1306;25351;-79
2022/12/15 02:41:51;;;;;;;30.10;12.80;;;;;;;;;;103224;1307;23519;-76
2022/12/15 02:44:21;;;;;;;33.80;13.20;;;;;;;;;;103226;1307;26433;-81
2022/12/15 02:47:03;;;;;;;27.20;10.70;;;;;;;;;;103447;1306;22482;-78
2022/12/15 02:49:39;;;;;;;35.10;14.10;;;;;;;;;;103221;1302;25408;-78
2022/12/15 02:52:16;;;;;;;32.30;14.40;;;;;;;;;;103240;1302;22467;-77
2022/12/15 02:55:13;;;;;;;30.90;12.40;;;;;;;;;;103159;1306;23901;-79
2022/12/15 02:57:54;;;;;;;30.10;12.80;;;;;;;;;;107010;1300;22312;-75
2022/12/15 03:00:21;;;;;;;29.40;13.00;;;;;;;;;;106912;1302;21953;-75
2022/12/15 03:02:50;;;;;;;26.80;10.20;;;;;;;;;;107050;1300;22096;-75
2022/12/15 03:05:17;;;;;;;36.30;14.00;;;;;;;;;;106777;1302;22151;-75
2022/12/15 03:07:44;;;;;;;34.90;14.20;;;;;;;;;;106835;1294;22314;-75
2022/12/15 03:10:12;;;;;;;29.50;12.00;;;;;;;;;;106947;1306;22790;-75
2022/12/15 03:12:39;;;;;;;30.40;12.10;;;;;;;;;;106708;1303;22010;-75
2022/12/15 03:15:06;;;;;;;30.70;12.20;;;;;;;;;;106945;1295;22034;-75
2022/12/15 03:17:33;;;;;;;28.20;11.20;;;;;;;;;;106733;1304;21976;-75
2022/12/15 03:19:59;;;;;;;33.10;13.40;;;;;;;;;;106911;1307;22314;-75
2022/12/15 03:22:26;;;;;;;28.90;12.30;;;;;;;;;;106899;1307;22709;-75
2022/12/15 03:24:53;;;;;;;30.10;12.10;;;;;;;;;;106923;1307;22042;-75
2022/12/15 03:27:19;;;;;;;27.50;10.90;;;;;;;;;;106736;1308;22105;-75
2022/12/15 03:29:46;;;;;;;32.50;12.80;;;;;;;;;;106735;1307;22084;-75
2022/12/15 03:32:13;;;;;;;30.70;13.00;;;;;;;;;;106899;1307;22062;-75
2022/12/15 03:34:40;;;;;;;30.10;12.60;;;;;;;;;;107061;1304;22188;-75
2022/12/15 03:37:08;;;;;;;35.20;13.60;;;;;;;;;;106944;1304;22049;-75
2022/12/15 03:39:34;;;;;;;32.90;13.60;;;;;;;;;;106900;1304;22092;-75
2022/12/15 03:42:01;;;;;;;31.00;13.20;;;;;;;;;;107095;1304;22725;-75
2022/12/15 03:44:27;;;;;;;30.40;13.40;;;;;;;;;;107128;1301;22234;-75
2022/12/15 03:46:54;;;;;;;31.50;12.00;;;;;;;;;;107337;1297;22141;-76
2022/12/15 03:49:21;;;;;;;34.70;14.60;;;;;;;;;;107074;1304;22087;-75
2022/12/15 03:51:47;;;;;;;30.10;12.30;;;;;;;;;;107107;1304;21741;-75
2022/12/15 03:54:14;;;;;;;34.20;12.90;;;;;;;;;;107491;1293;22109;-76
2022/12/15 03:56:41;;;;;;;32.00;13.50;;;;;;;;;;107113;1296;22078;-75
2022/12/15 03:59:07;;;;;;;29.70;12.80;;;;;;;;;;107046;1303;22051;-75
2022/12/15 04:01:35;;;;;;;30.00;12.00;;;;;;;;;;107168;1296;22761;-75
2022/12/15 04:04:02;;;;;;;31.70;12.90;;;;;;;;;;107193;1303;22086;-75
2022/12/15 04:06:29;;;;;;;31.90;13.70;;;;;;;;;;107088;1296;22056;-75
2022/12/15 04:08:56;;;;;;;34.20;13.10;;;;;;;;;;107120;1297;21991;-76
2022/12/15 04:11:22;;;;;;;37.20;13.80;;;;;;;;;;107125;1296;22050;-75
2022/12/15 04:13:49;;;;;;;30.50;13.60;;;;;;;;;;107007;1304;22043;-76
2022/12/15 04:16:16;;;;;;;33.50;14.00;;;;;;;;;;107128;1303;22057;-76
2022/12/15 04:18:43;;;;;;;31.80;13.60;;;;;;;;;;107330;1282;22752;-75
2022/12/15 04:21:09;;;;;;;31.50;13.80;;;;;;;;;;107103;1303;22038;-75
2022/12/15 04:23:36;;;;;;;32.40;14.40;;;;;;;;;;107193;1297;22054;-75
2022/12/15 05:32:24;;;;;;;23.20;9.00;;;;;;;;;;107286;1297;22057;-75
2022/12/15 05:34:51;;;;;;;20.90;8.40;;;;;;;;;;107276;1290;22059;-75
2022/12/15 05:37:17;;;;;;;23.00;9.50;;;;;;;;;;107351;1297;21995;-76
2022/12/15 05:39:44;;;;;;;17.40;6.30;;;;;;;;;;107008;1305;22382;-76
2022/12/15 05:42:10;;;;;;;20.20;8.20;;;;;;;;;;106974;1304;22053;-75
2022/12/15 05:44:37;;;;;;;22.20;8.60;;;;;;;;;;106989;1299;22127;-75
2022/12/15 05:47:04;;;;;;;21.60;8.80;;;;;;;;;;106992;1304;22661;-75
2022/12/15 05:49:31;;;;;;;21.40;8.60;;;;;;;;;;107314;1285;22053;-76
2022/12/15 05:51:57;;;;;;;20.10;8.60;;;;;;;;;;106930;1306;22109;-76
2022/12/15 05:54:24;;;;;;;20.40;7.70;;;;;;;;;;107327;1281;22719;-75
2022/12/15 05:56:51;;;;;;;22.40;8.80;;;;;;;;;;106957;1304;22073;-75
2022/12/15 05:59:20;;;;;;;19.60;8.70;;;;;;;;;;107002;1301;22114;-75
2022/12/15 06:01:47;;;;;;;20.80;8.10;;;;;;;;;;107025;1297;22088;-75
2022/12/15 06:04:14;;;;;;;18.00;7.00;;;;;;;;;;107258;1282;23414;-76
2022/12/15 06:06:41;;;;;;;22.00;8.80;;;;;;;;;;106935;1292;22091;-76
2022/12/15 06:09:08;;;;;;;20.90;8.20;;;;;;;;;;107272;1298;22838;-76
2022/12/15 06:11:36;;;;;;;23.20;8.50;;;;;;;;;;106913;1306;22064;-76
2022/12/15 06:14:02;;;;;;;21.70;8.80;;;;;;;;;;106940;1301;22727;-75
2022/12/15 06:16:29;;;;;;;20.50;7.40;;;;;;;;;;106956;1299;23124;-75
2022/12/15 06:18:58;;;;;;;20.00;8.20;;;;;;;;;;107054;1304;22200;-75
2022/12/15 06:21:26;;;;;;;20.20;7.60;;;;;;;;;;106906;1298;22790;-76
2022/12/15 06:23:54;;;;;;;19.00;7.50;;;;;;;;;;106987;1304;22128;-75
2022/12/15 06:26:25;;;;;;;19.60;8.00;;;;;;;;;;106916;1292;22701;-75
2022/12/15 06:28:53;;;;;;;22.50;9.10;;;;;;;;;;106936;1304;22107;-75
2022/12/15 06:31:21;;;;;;;19.30;8.00;;;;;;;;;;106871;1306;22055;-75
2022/12/15 06:33:49;;;;;;;22.50;10.10;;;;;;;;;;107043;1304;22056;-75
2022/12/15 06:36:16;;;;;;;19.60;9.00;;;;;;;;;;106929;1305;22071;-76
2022/12/15 06:38:43;;;;;;;19.60;8.10;;;;;;;;;;106928;1306;22837;-75
2022/12/15 06:41:11;;;;;;;18.50;7.30;;;;;;;;;;106904;1300;22066;-75
2022/12/15 06:43:38;;;;;;;23.20;8.50;;;;;;;;;;106788;1293;22086;-76
2022/12/15 06:46:04;;;;;;;21.20;9.30;;;;;;;;;;106990;1304;22204;-76
2022/12/15 06:48:31;;;;;;;20.40;9.20;;;;;;;;;;107104;1299;22787;-75
2022/12/15 06:51:02;;;;;;;20.00;8.70;;;;;;;;;;106933;1304;22909;-75
2022/12/15 06:53:29;;;;;;;18.60;7.80;;;;;;;;;;106800;1304;22135;-76
2022/12/15 06:56:00;;;;;;;21.40;8.90;;;;;;;;;;106935;1306;22100;-76
2022/12/15 06:58:27;;;;;;;21.30;8.80;;;;;;;;;;106877;1306;22059;-75
2022/12/15 07:00:54;;;;;;;17.20;7.60;;;;;;;;;;106945;1306;22940;-76
2022/12/15 07:03:21;;;;;;;22.60;9.50;;;;;;;;;;106963;1304;22025;-75
2022/12/15 07:05:47;;;;;;;21.70;9.10;;;;;;;;;;106921;1304;22824;-75
2022/12/15 07:08:15;;;;;;;35.70;13.10;;;;;;;;;;107129;1304;22045;-77
2022/12/15 07:10:42;;;;;;;34.30;12.10;;;;;;;;;;107168;1291;22602;-76
2022/12/15 07:13:12;;;;;;;26.50;11.40;;;;;;;;;;106788;1306;22458;-76
2022/12/15 07:15:40;;;;;;;25.70;9.90;;;;;;;;;;107054;1287;22660;-75
2022/12/15 07:18:06;;;;;;;35.80;14.00;;;;;;;;;;106880;1306;22084;-76
2022/12/15 07:20:33;;;;;;;31.40;13.70;;;;;;;;;;106912;1306;22714;-75
2022/12/15 07:22:59;;;;;;;30.00;12.60;;;;;;;;;;106816;1304;22095;-76
2022/12/15 07:25:26;;;;;;;32.70;11.80;;;;;;;;;;106952;1299;22097;-75
2022/12/15 07:27:53;;;;;;;28.80;11.30;;;;;;;;;;107112;1304;22088;-76
2022/12/15 07:30:19;;;;;;;27.50;10.40;;;;;;;;;;107099;1304;22071;-76
2022/12/15 07:32:46;;;;;;;30.00;11.50;;;;;;;;;;107125;1298;22060;-76
2022/12/15 07:35:12;;;;;;;26.90;11.10;;;;;;;;;;106904;1306;23019;-75
2022/12/15 07:37:39;;;;;;;24.90;10.40;;;;;;;;;;106914;1306;22150;-75
2022/12/15 07:40:07;;;;;;;30.00;12.00;;;;;;;;;;107151;1283;22861;-76
2022/12/15 07:42:33;;;;;;;31.10;11.70;;;;;;;;;;106786;1304;22090;-76
2022/12/15 07:45:00;;;;;;;30.60;13.20;;;;;;;;;;107318;1282;22061;-76
2022/12/15 07:47:27;;;;;;;35.20;13.50;;;;;;;;;;106953;1304;22058;-75
2022/12/15 07:49:54;;;;;;;35.00;14.60;;;;;;;;;;107176;1297;22049;-76
2022/12/15 07:52:20;;;;;;;51.00;17.00;;;;;;;;;;107329;1292;22654;-76
2022/12/15 07:54:47;;;;;;;47.40;17.80;;;;;;;;;;107081;1304;22063;-77
2022/12/15 07:57:15;;;;;;;46.10;17.30;;;;;;;;;;107008;1307;21966;-76
2022/12/15 07:59:42;;;;;;;45.00;17.90;;;;;;;;;;106906;1307;22148;-75
2022/12/15 08:02:12;;;;;;;50.40;18.90;;;;;;;;;;106906;1307;22090;-75
2022/12/15 08:04:39;;;;;;;41.50;15.10;;;;;;;;;;106782;1307;21910;-75
2022/12/15 08:07:06;;;;;;;48.10;16.50;;;;;;;;;;106899;1307;22066;-75
2022/12/15 08:09:33;;;;;;;48.40;18.70;;;;;;;;;;106878;1307;22028;-75
2022/12/15 08:12:00;;;;;;;47.80;18.60;;;;;;;;;;106901;1307;22766;-75
2022/12/15 08:14:28;;;;;;;57.10;20.30;;;;;;;;;;106930;1306;22515;-75
2022/12/15 08:16:54;;;;;;;55.80;20.70;;;;;;;;;;106722;1306;22095;-75
2022/12/15 08:19:21;;;;;;;47.90;20.20;;;;;;;;;;106895;1301;22083;-75
2022/12/15 08:21:48;;;;;;;50.30;20.60;;;;;;;;;;106901;1307;22088;-75
2022/12/15 08:24:15;;;;;;;60.80;21.80;;;;;;;;;;106898;1302;21967;-75
2022/12/15 08:26:42;;;;;;;53.80;20.90;;;;;;;;;;106903;1299;22082;-75
2022/12/15 08:29:12;;;;;;;65.10;22.60;;;;;;;;;;106817;1307;22788;-75
2022/12/15 08:31:39;;;;;;;55.60;19.60;;;;;;;;;;106813;1307;22676;-75
2022/12/15 08:34:06;;;;;;;53.70;21.70;;;;;;;;;;106883;1307;22109;-75
2022/12/15 08:36:33;;;;;;;46.80;19.30;;;;;;;;;;106934;1307;22663;-75
2022/12/15 08:39:00;;;;;;;44.80;17.50;;;;;;;;;;106897;1299;22257;-75
2022/12/15 08:41:28;;;;;;;45.20;19.50;;;;;;;;;;106918;1307;22055;-75
2022/12/15 08:43:56;;;;;;;35.40;15.10;;;;;;;;;;106886;1307;21966;-75
2022/12/15 08:46:24;;;;;;;38.30;16.50;;;;;;;;;;106910;1307;22077;-75
2022/12/15 08:48:52;;;;;;;38.60;17.50;;;;;;;;;;106900;1307;21950;-75
2022/12/15 08:51:20;;;;;;;36.50;16.50;;;;;;;;;;106907;1299;22378;-75
2022/12/15 08:53:47;;;;;;;38.00;17.80;;;;;;;;;;106702;1307;22155;-75
2022/12/15 08:56:15;;;;;;;38.20;16.40;;;;;;;;;;106741;1308;22735;-75
2022/12/15 08:58:43;;;;;;;43.00;18.30;;;;;;;;;;106885;1301;22076;-75
2022/12/15 09:01:12;;;;;;;40.30;17.70;;;;;;;;;;106881;1309;22131;-75
2022/12/15 09:03:42;;;;;;;43.00;17.20;;;;;;;;;;106712;1308;22102;-75
2022/12/15 09:06:12;;;;;;;39.80;16.30;;;;;;;;;;106873;1310;22150;-75
2022/12/15 09:08:40;;;;;;;37.30;16.40;;;;;;;;;;106887;1308;22105;-75
2022/12/15 09:11:08;;;;;;;35.60;16.90;;;;;;;;;;106880;1308;22134;-76
2022/12/15 09:13:36;;;;;;;36.90;16.30;;;;;;;;;;106838;1299;22069;-75
2022/12/15 09:16:07;;;;;;;32.70;13.50;;;;;;;;;;106854;1309;21966;-76
2022/12/15 09:18:35;;;;;;;29.10;13.60;;;;;;;;;;106710;1309;22171;-75
2022/12/15 09:21:03;;;;;;;30.30;13.70;;;;;;;;;;106731;1309;22135;-75
2022/12/15 09:23:31;;;;;;;32.20;14.30;;;;;;;;;;106886;1292;22088;-75
2022/12/15 09:25:59;;;;;;;35.60;15.00;;;;;;;;;;106859;1308;22833;-75
2022/12/15 09:28:27;;;;;;;37.00;16.20;;;;;;;;;;106773;1307;22084;-75
2022/12/15 09:31:01;;;;;;;35.60;16.30;;;;;;;;;;106754;1309;22065;-75
2022/12/15 09:33:28;;;;;;;54.00;19.10;;;;;;;;;;106883;1310;22090;-75
2022/12/15 09:35:56;;;;;;;45.10;16.90;;;;;;;;;;106869;1308;22061;-75
2022/12/15 09:38:24;;;;;;;40.40;17.50;;;;;;;;;;106887;1308;22092;-75
2022/12/15 09:40:51;;;;;;;41.00;17.20;;;;;;;;;;106871;1309;22074;-75
2022/12/15 09:43:21;;;;;;;35.70;15.20;;;;;;;;;;106894;1307;21773;-76
2022/12/15 09:45:59;;;;;;;41.30;16.20;;;;;;;;;;106851;1302;22117;-75
2022/12/15 09:48:30;;;;;;;51.60;19.80;;;;;;;;;;106895;1310;22139;-75
2022/12/15 09:51:00;;;;;;;61.20;22.20;;;;;;;;;;106740;1310;22083;-76
2022/12/15 09:53:27;;;;;;;78.60;27.10;;;;;;;;;;106885;1310;22111;-76
2022/12/15 09:56:01;;;;;;;62.90;22.90;;;;;;;;;;106708;1308;22130;-75
2022/12/15 09:58:48;;;;;;;76.20;25.30;;;;;;;;;;106704;1309;22750;-75
2022/12/15 10:01:27;;;;;;;57.10;21.90;;;;;;;;;;106905;1307;22123;-75
2022/12/15 10:04:10;;;;;;;49.00;19.70;;;;;;;;;;106851;1307;22901;-76
2022/12/15 10:07:03;;;;;;;38.40;15.80;;;;;;;;;;106618;1303;21947;-75
2022/12/15 10:09:34;;;;;;;40.90;15.00;;;;;;;;;;106709;1309;22153;-75
2022/12/15 10:12:05;;;;;;;38.90;16.00;;;;;;;;;;106761;1309;22071;-75
2022/12/15 10:14:46;;;;;;;44.10;16.90;;;;;;;;;;105527;1309;1686753;-74
2022/12/15 10:17:41;;;;;;;40.20;15.00;;;;;;;;;;106712;1307;22056;-75
2022/12/15 10:20:23;;;;;;;37.90;15.10;;;;;;;;;;106752;1307;22052;-75
2022/12/15 10:22:53;;;;;;;36.40;14.80;;;;;;;;;;106837;1307;22099;-75
2022/12/15 10:25:24;;;;;;;36.00;15.40;;;;;;;;;;106724;1306;22050;-74
2022/12/15 10:28:08;;;;;;;31.60;14.20;;;;;;;;;;106726;1305;22693;-75
2022/12/15 10:30:42;;;;;;;29.50;12.50;;;;;;;;;;106810;1307;22106;-74
2022/12/15 10:33:20;;;;;;;39.70;14.20;;;;;;;;;;106706;1307;22110;-75
2022/12/15 10:35:52;;;;;;;34.10;15.30;;;;;;;;;;106729;1307;22758;-74
2022/12/15 10:38:39;;;;;;;32.30;13.50;;;;;;;;;;106692;1310;22808;-74
2022/12/15 10:41:08;;;;;;;32.30;13.00;;;;;;;;;;106736;1310;22067;-74
2022/12/15 10:43:40;;;;;;;31.20;13.30;;;;;;;;;;106718;1302;22109;-75
2022/12/15 10:46:13;;;;;;;31.30;13.70;;;;;;;;;;106715;1301;22091;-75
2022/12/15 10:48:44;;;;;;;32.30;13.40;;;;;;;;;;106726;1307;22051;-74
2022/12/15 10:51:20;;;;;;;35.30;14.30;;;;;;;;;;106719;1292;22156;-75
2022/12/15 10:53:52;;;;;;;30.60;14.10;;;;;;;;;;106737;1307;22032;-74
2022/12/15 11:01:34;;;;;;;30.90;13.20;;;;;;;;;;100420;1342;544999;-81
2022/12/15 11:04:01;;;;;;;31.00;14.00;;;;;;;;;;103055;1286;22471;-75
2022/12/15 11:06:29;;;;;;;35.00;13.80;;;;;;;;;;103028;1295;25309;-75
2022/12/15 11:09:06;;;;;;;40.20;17.60;;;;;;;;;;103274;1310;22482;-78
2022/12/15 11:14:23;;;;;;;32.10;13.70;;;;;;;;;;101873;1298;1659883;-75
2022/12/15 11:16:56;;;;;;;28.80;12.50;;;;;;;;;;103211;1295;22423;-79
2022/12/15 11:19:29;;;;;;;26.90;12.50;;;;;;;;;;103263;1288;25731;-80
2022/12/15 11:22:00;;;;;;;28.90;12.50;;;;;;;;;;103191;1295;22493;-76
2022/12/15 11:24:43;;;;;;;27.80;12.40;;;;;;;;;;103296;1291;23222;-77
2022/12/15 11:27:42;;;;;;;27.00;12.50;;;;;;;;;;103196;1293;22483;-81
2022/12/15 11:30:17;;;;;;;28.40;13.30;;;;;;;;;;102865;1300;22643;-76
2022/12/15 11:32:47;;;;;;;31.70;14.50;;;;;;;;;;102730;1316;22489;-81
2022/12/15 11:35:16;;;;;;;29.80;14.00;;;;;;;;;;102597;1300;22461;-80
2022/12/15 11:37:44;;;;;;;29.80;13.00;;;;;;;;;;102730;1316;24340;-78
2022/12/15 11:40:17;;;;;;;34.70;15.30;;;;;;;;;;102675;1316;24320;-76
2022/12/15 11:42:53;;;;;;;34.50;14.80;;;;;;;;;;102861;1313;23823;-80
2022/12/15 11:45:28;;;;;;;32.40;13.50;;;;;;;;;;102902;1313;22470;-77
2022/12/15 11:48:21;;;;;;;29.20;13.10;;;;;;;;;;102922;1297;22598;-77
2022/12/15 11:51:00;;;;;;;31.00;13.30;;;;;;;;;;102921;1297;22485;-77
2022/12/15 11:53:39;;;;;;;33.50;13.30;;;;;;;;;;102719;1301;22487;-75
2022/12/15 11:56:25;;;;;;;36.00;14.60;;;;;;;;;;102747;1291;22704;-75
2022/12/15 11:58:52;;;;;;;38.10;16.20;;;;;;;;;;102790;1316;25548;-75
2022/12/15 12:01:31;;;;;;;35.80;14.40;;;;;;;;;;102860;1293;22478;-76
2022/12/15 12:03:58;;;;;;;29.00;13.70;;;;;;;;;;102974;1287;24847;-75
2022/12/15 12:06:46;;;;;;;38.70;14.90;;;;;;;;;;103449;1281;24233;-77
2022/12/15 12:09:16;;;;;;;151.20;51.30;;;;;;;;;;103439;1281;22439;-79
2022/12/15 12:11:53;;;;;;;139.10;43.00;;;;;;;;;;103472;1291;25204;-75
2022/12/15 12:14:20;;;;;;;104.60;34.70;;;;;;;;;;103156;1307;22465;-76
2022/12/15 12:16:58;;;;;;;75.90;25.70;;;;;;;;;;103309;1282;24221;-76
2022/12/15 12:19:34;;;;;;;36.40;15.20;;;;;;;;;;103491;1281;22512;-76
2022/12/15 12:22:24;;;;;;;82.30;31.30;;;;;;;;;;103402;1275;25288;-76
2022/12/15 12:24:51;;;;;;;39.00;15.90;;;;;;;;;;103524;1289;22474;-78
2022/12/15 12:27:30;;;;;;;37.80;15.50;;;;;;;;;;103554;1282;22468;-77
2022/12/15 12:30:08;;;;;;;31.40;14.40;;;;;;;;;;103548;1283;22470;-78
2022/12/15 12:32:48;;;;;;;37.00;14.40;;;;;;;;;;103546;1282;25451;-75
2022/12/15 12:35:14;;;;;;;28.00;12.10;;;;;;;;;;103310;1285;22478;-76
2022/12/15 12:37:43;;;;;;;35.00;17.30;;;;;;;;;;103409;1282;22528;-77
2022/12/15 12:40:18;;;;;;;26.50;13.00;;;;;;;;;;103435;1285;22475;-78
2022/12/15 12:42:56;;;;;;;29.20;15.40;;;;;;;;;;103462;1290;25212;-75
2022/12/15 12:45:27;;;;;;;39.70;18.30;;;;;;;;;;103380;1281;24248;-82
2022/12/15 12:47:56;;;;;;;38.10;19.20;;;;;;;;;;103505;1287;24269;-81
2022/12/15 12:50:26;;;;;;;36.50;17.40;;;;;;;;;;103487;1288;22510;-83
2022/12/15 12:52:55;;;;;;;37.90;18.60;;;;;;;;;;103441;1288;22588;-77
2022/12/15 12:55:41;;;;;;;38.30;18.30;;;;;;;;;;103451;1292;22470;-79
2022/12/15 12:58:29;;;;;;;38.50;18.90;;;;;;;;;;103429;1284;27690;-76
2022/12/15 13:01:17;;;;;;;56.40;25.30;;;;;;;;;;103300;1290;24149;-76
2022/12/15 13:03:45;;;;;;;50.50;23.30;;;;;;;;;;103385;1282;22873;-76
2022/12/15 13:06:41;;;;;;;46.20;21.80;;;;;;;;;;103494;1289;25367;-80
2022/12/15 13:09:18;;;;;;;49.40;23.20;;;;;;;;;;102932;1290;25307;-75
2022/12/15 13:11:47;;;;;;;62.10;26.90;;;;;;;;;;103116;1294;23070;-77
2022/12/15 13:14:17;;;;;;;79.60;31.00;;;;;;;;;;103014;1299;23850;-75
2022/12/15 13:16:44;;;;;;;58.40;25.90;;;;;;;;;;102972;1288;22543;-78
2022/12/15 13:19:12;;;;;;;66.50;25.80;;;;;;;;;;103045;1295;23093;-80
2022/12/15 13:21:45;;;;;;;55.20;23.00;;;;;;;;;;103079;1288;22476;-76
2022/12/15 13:24:24;;;;;;;58.80;25.10;;;;;;;;;;103118;1307;25450;-76
2022/12/15 13:26:51;;;;;;;61.40;27.10;;;;;;;;;;103000;1296;22437;-76
2022/12/15 13:29:22;;;;;;;58.70;26.70;;;;;;;;;;103034;1294;24159;-78
2022/12/15 13:31:49;;;;;;;56.20;24.30;;;;;;;;;;103097;1288;25016;-78
2022/12/15 13:34:19;;;;;;;53.40;24.10;;;;;;;;;;102995;1294;22469;-80
2022/12/15 13:36:49;;;;;;;55.70;25.70;;;;;;;;;;103044;1287;22509;-80
2022/12/15 13:39:16;;;;;;;69.40;28.20;;;;;;;;;;103089;1289;24207;-79
2022/12/15 13:41:46;;;;;;;59.10;25.30;;;;;;;;;;103119;1289;22619;-77
2022/12/15 13:44:16;;;;;;;54.80;23.60;;;;;;;;;;103004;1294;24145;-78
2022/12/15 13:46:45;;;;;;;53.70;22.90;;;;;;;;;;103406;1278;22485;-77
2022/12/15 13:49:11;;;;;;;64.40;29.50;;;;;;;;;;103688;1296;25314;-80
2022/12/15 13:51:42;;;;;;;60.50;26.70;;;;;;;;;;103770;1304;24307;-77
2022/12/15 13:54:21;;;;;;;56.90;22.90;;;;;;;;;;103603;1283;22486;-77
2022/12/15 13:57:07;;;;;;;43.80;20.30;;;;;;;;;;103164;1285;24309;-77
2022/12/15 13:59:49;;;;;;;44.10;19.50;;;;;;;;;;103522;1290;22482;-77
2022/12/15 14:02:27;;;;;;;45.70;19.50;;;;;;;;;;103430;1292;22468;-77
2022/12/15 14:05:03;;;;;;;41.40;18.40;;;;;;;;;;103387;1282;22478;-79
2022/12/15 14:07:31;;;;;;;42.20;18.50;;;;;;;;;;103667;1288;22745;-77
2022/12/15 14:09:59;;;;;;;93.50;40.80;;;;;;;;;;103454;1284;22470;-80
2022/12/15 14:12:28;;;;;;;71.70;31.90;;;;;;;;;;103294;1307;22464;-79
2022/12/15 14:14:55;;;;;;;90.00;37.80;;;;;;;;;;103399;1306;23752;-77
2022/12/15 14:17:21;;;;;;;76.00;33.90;;;;;;;;;;103139;1310;21982;-80
2022/12/15 14:19:52;;;;;;;56.40;22.00;;;;;;;;;;103206;1298;25781;-77
2022/12/15 14:22:24;;;;;;;52.40;22.30;;;;;;;;;;103269;1306;22930;-78
2022/12/15 14:25:01;;;;;;;51.80;20.50;;;;;;;;;;103283;1306;25272;-79
2022/12/15 14:27:29;;;;;;;47.30;19.50;;;;;;;;;;103359;1306;22616;-77
2022/12/15 14:30:15;;;;;;;50.80;20.50;;;;;;;;;;103369;1311;25254;-81
2022/12/15 14:32:43;;;;;;;171.00;59.70;;;;;;;;;;103412;1304;22427;-77
2022/12/15 14:35:13;;;;;;;181.50;73.40;;;;;;;;;;103378;1306;22449;-78
2022/12/15 14:37:40;;;;;;;234.20;93.00;;;;;;;;;;103533;1311;26622;-77
2022/12/15 14:40:11;;;;;;;132.30;52.60;;;;;;;;;;103362;1306;23901;-77
2022/12/15 14:42:41;;;;;;;90.40;36.50;;;;;;;;;;103236;1305;24250;-77
2022/12/15 14:45:17;;;;;;;73.50;26.00;;;;;;;;;;103311;1310;22460;-78
2022/12/15 14:47:49;;;;;;;57.60;23.90;;;;;;;;;;103643;1310;25263;-78
2022/12/15 14:50:16;;;;;;;64.80;23.70;;;;;;;;;;103111;1302;23879;-77
2022/12/15 14:52:43;;;;;;;59.90;24.20;;;;;;;;;;103590;1283;23857;-77
2022/12/15 14:55:20;;;;;;;73.60;27.20;;;;;;;;;;103437;1290;22533;-78
2022/12/15 14:57:47;;;;;;;83.40;30.50;;;;;;;;;;103391;1295;22462;-78
2022/12/15 15:00:24;;;;;;;85.50;31.30;;;;;;;;;;103406;1306;24259;-79
2022/12/15 15:03:11;;;;;;;83.70;31.40;;;;;;;;;;106886;1297;22189;-76
2022/12/15 15:05:39;;;;;;;78.90;30.00;;;;;;;;;;106913;1304;22072;-76
2022/12/15 15:08:10;;;;;;;77.80;30.80;;;;;;;;;;106925;1307;22065;-76
2022/12/15 15:10:39;;;;;;;73.80;28.30;;;;;;;;;;107138;1303;22092;-76
2022/12/15 15:13:16;;;;;;;86.20;30.60;;;;;;;;;;106935;1306;22077;-76
2022/12/15 15:15:50;;;;;;;91.70;31.80;;;;;;;;;;106975;1310;22084;-76
2022/12/15 15:18:19;;;;;;;85.60;30.50;;;;;;;;;;106908;1298;22172;-76
2022/12/15 15:20:50;;;;;;;89.30;31.90;;;;;;;;;;106917;1305;22890;-77
2022/12/15 15:23:18;;;;;;;82.90;32.40;;;;;;;;;;106919;1312;22848;-77
2022/12/15 15:25:50;;;;;;;109.00;36.90;;;;;;;;;;106984;1306;22811;-77
2022/12/15 15:28:17;;;;;;;122.50;36.50;;;;;;;;;;106928;1304;22770;-77
2022/12/15 15:30:44;;;;;;;117.30;37.10;;;;;;;;;;106986;1310;22076;-76
2022/12/15 15:33:12;;;;;;;129.60;39.30;;;;;;;;;;106968;1310;22061;-76
2022/12/15 15:35:40;;;;;;;134.90;41.30;;;;;;;;;;107328;1297;22041;-76
2022/12/15 15:38:21;;;;;;;143.10;47.00;;;;;;;;;;106949;1310;22797;-77
2022/12/15 15:40:49;;;;;;;121.00;41.80;;;;;;;;;;106973;1305;22847;-76
2022/12/15 15:43:17;;;;;;;105.80;39.70;;;;;;;;;;106908;1307;22029;-76
2022/12/15 15:45:45;;;;;;;110.20;38.90;;;;;;;;;;106933;1307;23098;-76
2022/12/15 15:48:15;;;;;;;103.00;36.20;;;;;;;;;;106912;1304;22225;-76
2022/12/15 15:50:43;;;;;;;110.20;43.10;;;;;;;;;;106922;1304;22003;-76
2022/12/15 15:53:14;;;;;;;107.00;39.80;;;;;;;;;;107099;1304;22042;-76
2022/12/15 15:55:42;;;;;;;86.80;31.70;;;;;;;;;;107066;1304;22553;-76
2022/12/15 15:58:11;;;;;;;94.30;37.70;;;;;;;;;;106946;1307;22832;-77
2022/12/15 16:00:39;;;;;;;104.40;39.40;;;;;;;;;;106913;1306;22109;-77
2022/12/15 16:03:06;;;;;;;104.90;37.60;;;;;;;;;;106903;1307;22135;-77
2022/12/15 16:05:34;;;;;;;96.60;35.40;;;;;;;;;;106903;1306;22734;-76
2022/12/15 16:08:02;;;;;;;90.30;36.00;;;;;;;;;;106904;1299;22066;-76
2022/12/15 16:10:31;;;;;;;96.10;34.90;;;;;;;;;;106907;1307;22063;-75
2022/12/15 16:13:01;;;;;;;95.00;35.50;;;;;;;;;;107034;1306;22820;-75
2022/12/15 16:15:30;;;;;;;101.70;38.30;;;;;;;;;;107039;1306;22228;-75
2022/12/15 16:17:58;;;;;;;97.10;35.30;;;;;;;;;;106909;1307;22086;-75
2022/12/15 16:20:26;;;;;;;96.60;35.40;;;;;;;;;;106941;1306;22183;-75
2022/12/15 16:22:56;;;;;;;115.80;44.90;;;;;;;;;;106905;1307;22087;-74
2022/12/15 16:25:46;;;;;;;126.00;43.30;;;;;;;;;;106947;1306;22329;-75
2022/12/15 16:28:15;;;;;;;141.10;48.30;;;;;;;;;;106946;1306;22772;-74
2022/12/15 16:30:43;;;;;;;136.80;45.30;;;;;;;;;;106926;1307;22647;-75
2022/12/15 16:33:12;;;;;;;131.60;45.70;;;;;;;;;;106915;1307;22072;-76
2022/12/15 16:35:40;;;;;;;148.50;48.80;;;;;;;;;;106920;1305;22828;-75
2022/12/15 16:38:21;;;;;;;150.70;53.40;;;;;;;;;;106992;1298;22783;-75
2022/12/15 16:40:49;;;;;;;155.00;55.00;;;;;;;;;;107082;1299;22101;-74
2022/12/15 16:43:17;;;;;;;153.30;55.20;;;;;;;;;;106962;1304;22086;-74
2022/12/15 16:45:46;;;;;;;164.40;57.00;;;;;;;;;;106935;1306;22125;-75
2022/12/15 16:48:14;;;;;;;185.70;63.20;;;;;;;;;;106853;1307;22092;-75
2022/12/15 16:50:42;;;;;;;184.00;61.30;;;;;;;;;;107042;1306;22759;-76